sensor_id;sensor_type;location;lat;lon;timestamp;P1;durP1;ratioP1;P2;durP2;ratioP2
26598;SDS011;14240;51.064;16.612;2023-05-03T00:01:47;14.05;;;6.82;;
26598;SDS011;14240;51.064;16.612;2023-05-03T00:04:14;19.52;;;7.10;;
26598;SDS011;14240;51.064;16.612;2023-05-03T00:06:42;20.30;;;7.13;;
26598;SDS011;14240;51.064;16.612;2023-05-03T00:09:09;21.40;;;6.15;;
26598;SDS011;14240;51.064;16.612;2023-05-03T00:11:35;22.58;;;7.43;;
26598;SDS011;14240;51.064;16.612;2023-05-03T00:14:01;15.27;;;7.45;;
26598;SDS011;14240;51.064;16.612;2023-05-03T00:16:27;17.38;;;5.80;;
26598;SDS011;14240;51.064;16.612;2023-05-03T00:18:53;18.63;;;6.43;;
26598;SDS011;14240;51.064;16.612;2023-05-03T00:21:18;9.68;;;5.60;;
26598;SDS011;14240;51.064;16.612;2023-05-03T00:23:44;23.17;;;6.20;;
26598;SDS011;14240;51.064;16.612;2023-05-03T00:26:10;16.77;;;5.80;;
26598;SDS011;14240;51.064;16.612;2023-05-03T00:28:36;21.10;;;5.85;;
26598;SDS011;14240;51.064;16.612;2023-05-03T00:31:05;10.52;;;5.20;;
26598;SDS011;14240;51.064;16.612;2023-05-03T00:33:32;13.85;;;5.40;;
26598;SDS011;14240;51.064;16.612;2023-05-03T00:35:58;9.93;;;5.47;;
26598;SDS011;14240;51.064;16.612;2023-05-03T00:38:23;13.10;;;5.00;;
26598;SDS011;14240;51.064;16.612;2023-05-03T00:40:53;11.25;;;5.40;;
26598;SDS011;14240;51.064;16.612;2023-05-03T00:43:18;9.27;;;5.28;;
26598;SDS011;14240;51.064;16.612;2023-05-03T00:45:44;12.98;;;4.93;;
26598;SDS011;14240;51.064;16.612;2023-05-03T00:48:11;15.00;;;4.95;;
26598;SDS011;14240;51.064;16.612;2023-05-03T00:50:37;14.90;;;5.60;;
26598;SDS011;14240;51.064;16.612;2023-05-03T00:53:03;13.05;;;5.53;;
26598;SDS011;14240;51.064;16.612;2023-05-03T00:55:29;14.18;;;5.68;;
26598;SDS011;14240;51.064;16.612;2023-05-03T00:57:57;13.63;;;5.35;;
26598;SDS011;14240;51.064;16.612;2023-05-03T01:00:23;13.43;;;4.85;;
26598;SDS011;14240;51.064;16.612;2023-05-03T01:02:49;12.30;;;5.55;;
26598;SDS011;14240;51.064;16.612;2023-05-03T01:05:15;13.15;;;6.10;;
26598;SDS011;14240;51.064;16.612;2023-05-03T01:07:47;14.00;;;5.40;;
26598;SDS011;14240;51.064;16.612;2023-05-03T01:15:58;9.82;;;4.72;;
26598;SDS011;14240;51.064;16.612;2023-05-03T01:18:33;12.10;;;5.00;;
26598;SDS011;14240;51.064;16.612;2023-05-03T01:21:04;12.73;;;4.95;;
26598;SDS011;14240;51.064;16.612;2023-05-03T01:26:14;12.30;;;4.70;;
26598;SDS011;14240;51.064;16.612;2023-05-03T01:28:40;7.43;;;4.80;;
26598;SDS011;14240;51.064;16.612;2023-05-03T01:31:06;11.85;;;4.97;;
26598;SDS011;14240;51.064;16.612;2023-05-03T01:33:34;12.57;;;5.63;;
26598;SDS011;14240;51.064;16.612;2023-05-03T01:36:12;9.00;;;4.55;;
26598;SDS011;14240;51.064;16.612;2023-05-03T01:38:44;9.60;;;4.93;;
26598;SDS011;14240;51.064;16.612;2023-05-03T01:41:11;9.73;;;4.47;;
26598;SDS011;14240;51.064;16.612;2023-05-03T01:43:41;13.57;;;5.32;;
26598;SDS011;14240;51.064;16.612;2023-05-03T01:46:08;16.58;;;5.63;;
26598;SDS011;14240;51.064;16.612;2023-05-03T01:48:35;10.68;;;5.35;;
26598;SDS011;14240;51.064;16.612;2023-05-03T01:51:00;11.13;;;5.60;;
26598;SDS011;14240;51.064;16.612;2023-05-03T01:53:26;9.88;;;4.95;;
26598;SDS011;14240;51.064;16.612;2023-05-03T01:55:52;15.30;;;5.43;;
26598;SDS011;14240;51.064;16.612;2023-05-03T01:58:17;14.52;;;5.68;;
26598;SDS011;14240;51.064;16.612;2023-05-03T02:00:44;14.18;;;5.30;;
26598;SDS011;14240;51.064;16.612;2023-05-03T02:03:10;12.17;;;5.23;;
26598;SDS011;14240;51.064;16.612;2023-05-03T02:05:36;12.15;;;5.15;;
26598;SDS011;14240;51.064;16.612;2023-05-03T02:08:02;14.48;;;5.25;;
26598;SDS011;14240;51.064;16.612;2023-05-03T02:10:27;15.88;;;5.28;;
26598;SDS011;14240;51.064;16.612;2023-05-03T02:12:53;12.90;;;5.53;;
26598;SDS011;14240;51.064;16.612;2023-05-03T02:15:19;10.15;;;5.35;;
26598;SDS011;14240;51.064;16.612;2023-05-03T02:17:44;13.50;;;5.47;;
26598;SDS011;14240;51.064;16.612;2023-05-03T02:20:12;16.15;;;5.68;;
26598;SDS011;14240;51.064;16.612;2023-05-03T02:22:37;13.68;;;5.95;;
26598;SDS011;14240;51.064;16.612;2023-05-03T02:25:03;13.52;;;5.50;;
26598;SDS011;14240;51.064;16.612;2023-05-03T02:27:30;12.23;;;5.18;;
26598;SDS011;14240;51.064;16.612;2023-05-03T02:29:56;12.63;;;5.20;;
26598;SDS011;14240;51.064;16.612;2023-05-03T02:32:22;11.30;;;5.47;;
26598;SDS011;14240;51.064;16.612;2023-05-03T02:34:48;12.52;;;5.32;;
26598;SDS011;14240;51.064;16.612;2023-05-03T02:37:14;10.52;;;5.03;;
26598;SDS011;14240;51.064;16.612;2023-05-03T02:39:40;11.25;;;5.28;;
26598;SDS011;14240;51.064;16.612;2023-05-03T02:42:06;15.65;;;5.90;;
26598;SDS011;14240;51.064;16.612;2023-05-03T02:44:32;16.88;;;5.82;;
26598;SDS011;14240;51.064;16.612;2023-05-03T02:46:57;11.57;;;4.70;;
26598;SDS011;14240;51.064;16.612;2023-05-03T02:49:23;8.30;;;5.30;;
26598;SDS011;14240;51.064;16.612;2023-05-03T02:51:49;15.00;;;5.57;;
26598;SDS011;14240;51.064;16.612;2023-05-03T02:54:16;12.68;;;6.18;;
26598;SDS011;14240;51.064;16.612;2023-05-03T02:56:42;13.98;;;5.35;;
26598;SDS011;14240;51.064;16.612;2023-05-03T02:59:08;14.70;;;5.47;;
26598;SDS011;14240;51.064;16.612;2023-05-03T03:01:34;12.93;;;5.40;;
26598;SDS011;14240;51.064;16.612;2023-05-03T03:03:59;12.80;;;5.78;;
26598;SDS011;14240;51.064;16.612;2023-05-03T03:06:25;16.70;;;5.72;;
26598;SDS011;14240;51.064;16.612;2023-05-03T03:08:52;17.25;;;6.10;;
26598;SDS011;14240;51.064;16.612;2023-05-03T03:11:17;20.52;;;5.57;;
26598;SDS011;14240;51.064;16.612;2023-05-03T03:13:43;19.45;;;5.32;;
26598;SDS011;14240;51.064;16.612;2023-05-03T03:16:09;17.95;;;6.47;;
26598;SDS011;14240;51.064;16.612;2023-05-03T03:18:35;11.88;;;5.38;;
26598;SDS011;14240;51.064;16.612;2023-05-03T03:21:01;17.77;;;6.18;;
26598;SDS011;14240;51.064;16.612;2023-05-03T03:23:28;17.23;;;7.95;;
26598;SDS011;14240;51.064;16.612;2023-05-03T03:25:54;14.48;;;7.10;;
26598;SDS011;14240;51.064;16.612;2023-05-03T03:28:20;16.30;;;6.82;;
26598;SDS011;14240;51.064;16.612;2023-05-03T03:30:45;11.68;;;5.88;;
26598;SDS011;14240;51.064;16.612;2023-05-03T03:33:11;21.05;;;5.50;;
26598;SDS011;14240;51.064;16.612;2023-05-03T03:35:37;15.32;;;6.20;;
26598;SDS011;14240;51.064;16.612;2023-05-03T03:38:03;18.73;;;7.03;;
26598;SDS011;14240;51.064;16.612;2023-05-03T03:40:29;13.07;;;6.35;;
26598;SDS011;14240;51.064;16.612;2023-05-03T03:42:55;14.55;;;6.03;;
26598;SDS011;14240;51.064;16.612;2023-05-03T03:45:21;14.07;;;6.30;;
26598;SDS011;14240;51.064;16.612;2023-05-03T03:47:47;20.05;;;7.20;;
26598;SDS011;14240;51.064;16.612;2023-05-03T03:50:12;11.02;;;6.97;;
26598;SDS011;14240;51.064;16.612;2023-05-03T03:52:38;17.65;;;8.73;;
26598;SDS011;14240;51.064;16.612;2023-05-03T03:55:04;15.05;;;6.40;;
26598;SDS011;14240;51.064;16.612;2023-05-03T03:57:30;23.35;;;6.57;;
26598;SDS011;14240;51.064;16.612;2023-05-03T03:59:56;12.50;;;6.03;;
26598;SDS011;14240;51.064;16.612;2023-05-03T04:02:23;11.43;;;5.37;;
26598;SDS011;14240;51.064;16.612;2023-05-03T04:04:50;11.88;;;5.38;;
26598;SDS011;14240;51.064;16.612;2023-05-03T04:07:15;14.35;;;5.55;;
26598;SDS011;14240;51.064;16.612;2023-05-03T04:09:41;20.65;;;8.82;;
26598;SDS011;14240;51.064;16.612;2023-05-03T04:12:07;16.52;;;7.30;;
26598;SDS011;14240;51.064;16.612;2023-05-03T04:14:33;16.65;;;6.95;;
26598;SDS011;14240;51.064;16.612;2023-05-03T04:16:59;21.85;;;6.82;;
26598;SDS011;14240;51.064;16.612;2023-05-03T04:19:25;15.27;;;6.95;;
26598;SDS011;14240;51.064;16.612;2023-05-03T04:21:54;24.50;;;7.15;;
26598;SDS011;14240;51.064;16.612;2023-05-03T04:24:20;19.15;;;7.40;;
26598;SDS011;14240;51.064;16.612;2023-05-03T04:26:46;19.70;;;7.53;;
26598;SDS011;14240;51.064;16.612;2023-05-03T04:29:11;15.05;;;6.55;;
26598;SDS011;14240;51.064;16.612;2023-05-03T04:31:37;20.65;;;7.82;;
26598;SDS011;14240;51.064;16.612;2023-05-03T04:34:03;20.60;;;8.10;;
26598;SDS011;14240;51.064;16.612;2023-05-03T04:36:30;17.77;;;8.02;;
26598;SDS011;14240;51.064;16.612;2023-05-03T04:38:56;16.02;;;8.15;;
26598;SDS011;14240;51.064;16.612;2023-05-03T04:41:22;21.08;;;8.27;;
26598;SDS011;14240;51.064;16.612;2023-05-03T04:43:48;21.98;;;8.38;;
26598;SDS011;14240;51.064;16.612;2023-05-03T04:46:15;21.10;;;8.02;;
26598;SDS011;14240;51.064;16.612;2023-05-03T04:48:42;17.20;;;7.40;;
26598;SDS011;14240;51.064;16.612;2023-05-03T04:51:09;18.85;;;7.53;;
26598;SDS011;14240;51.064;16.612;2023-05-03T04:53:34;15.32;;;6.55;;
26598;SDS011;14240;51.064;16.612;2023-05-03T04:56:00;20.38;;;7.65;;
26598;SDS011;14240;51.064;16.612;2023-05-03T04:58:26;20.90;;;7.60;;
26598;SDS011;14240;51.064;16.612;2023-05-03T05:00:51;16.05;;;7.75;;
26598;SDS011;14240;51.064;16.612;2023-05-03T05:03:18;17.42;;;5.63;;
26598;SDS011;14240;51.064;16.612;2023-05-03T05:05:44;18.35;;;6.07;;
26598;SDS011;14240;51.064;16.612;2023-05-03T05:08:10;9.50;;;5.20;;
26598;SDS011;14240;51.064;16.612;2023-05-03T05:10:36;12.45;;;4.78;;
26598;SDS011;14240;51.064;16.612;2023-05-03T05:13:04;13.88;;;4.47;;
26598;SDS011;14240;51.064;16.612;2023-05-03T05:15:31;11.20;;;5.18;;
26598;SDS011;14240;51.064;16.612;2023-05-03T05:17:57;10.80;;;4.82;;
26598;SDS011;14240;51.064;16.612;2023-05-03T05:20:23;12.13;;;5.63;;
26598;SDS011;14240;51.064;16.612;2023-05-03T05:22:49;7.47;;;4.47;;
26598;SDS011;14240;51.064;16.612;2023-05-03T05:25:14;8.75;;;5.15;;
26598;SDS011;14240;51.064;16.612;2023-05-03T05:27:40;10.15;;;4.97;;
26598;SDS011;14240;51.064;16.612;2023-05-03T05:30:06;10.35;;;4.93;;
26598;SDS011;14240;51.064;16.612;2023-05-03T05:32:32;10.52;;;5.10;;
26598;SDS011;14240;51.064;16.612;2023-05-03T05:34:58;13.38;;;5.43;;
26598;SDS011;14240;51.064;16.612;2023-05-03T05:37:25;11.70;;;4.22;;
26598;SDS011;14240;51.064;16.612;2023-05-03T05:39:51;13.50;;;5.15;;
26598;SDS011;14240;51.064;16.612;2023-05-03T05:42:18;12.80;;;5.50;;
26598;SDS011;14240;51.064;16.612;2023-05-03T05:44:43;11.70;;;5.18;;
26598;SDS011;14240;51.064;16.612;2023-05-03T05:47:10;17.23;;;10.65;;
26598;SDS011;14240;51.064;16.612;2023-05-03T05:49:36;13.00;;;7.65;;
26598;SDS011;14240;51.064;16.612;2023-05-03T05:52:02;14.18;;;5.20;;
26598;SDS011;14240;51.064;16.612;2023-05-03T05:54:27;14.05;;;5.63;;
26598;SDS011;14240;51.064;16.612;2023-05-03T05:56:53;15.90;;;6.10;;
26598;SDS011;14240;51.064;16.612;2023-05-03T05:59:19;14.27;;;5.57;;
26598;SDS011;14240;51.064;16.612;2023-05-03T06:01:44;10.13;;;4.45;;
26598;SDS011;14240;51.064;16.612;2023-05-03T06:04:14;13.43;;;5.07;;
26598;SDS011;14240;51.064;16.612;2023-05-03T06:06:40;12.35;;;4.63;;
26598;SDS011;14240;51.064;16.612;2023-05-03T06:09:06;11.57;;;4.47;;
26598;SDS011;14240;51.064;16.612;2023-05-03T06:11:33;13.32;;;4.82;;
26598;SDS011;14240;51.064;16.612;2023-05-03T06:13:59;9.13;;;4.13;;
26598;SDS011;14240;51.064;16.612;2023-05-03T06:16:27;9.85;;;3.85;;
26598;SDS011;14240;51.064;16.612;2023-05-03T06:18:53;9.77;;;4.68;;
26598;SDS011;14240;51.064;16.612;2023-05-03T06:21:20;14.50;;;4.38;;
26598;SDS011;14240;51.064;16.612;2023-05-03T06:23:46;8.52;;;4.32;;
26598;SDS011;14240;51.064;16.612;2023-05-03T06:26:11;10.20;;;3.63;;
26598;SDS011;14240;51.064;16.612;2023-05-03T06:28:37;13.52;;;4.00;;
26598;SDS011;14240;51.064;16.612;2023-05-03T06:31:03;9.77;;;3.90;;
26598;SDS011;14240;51.064;16.612;2023-05-03T06:33:28;14.38;;;3.83;;
26598;SDS011;14240;51.064;16.612;2023-05-03T06:35:54;17.67;;;4.28;;
26598;SDS011;14240;51.064;16.612;2023-05-03T06:38:20;7.43;;;3.40;;
26598;SDS011;14240;51.064;16.612;2023-05-03T06:40:46;8.13;;;3.70;;
26598;SDS011;14240;51.064;16.612;2023-05-03T06:43:12;8.77;;;3.92;;
26598;SDS011;14240;51.064;16.612;2023-05-03T06:45:41;8.20;;;3.65;;
26598;SDS011;14240;51.064;16.612;2023-05-03T06:48:07;11.55;;;4.10;;
26598;SDS011;14240;51.064;16.612;2023-05-03T06:50:34;9.43;;;4.03;;
26598;SDS011;14240;51.064;16.612;2023-05-03T06:53:00;9.15;;;3.95;;
26598;SDS011;14240;51.064;16.612;2023-05-03T06:55:25;13.85;;;4.80;;
26598;SDS011;14240;51.064;16.612;2023-05-03T06:57:52;7.40;;;3.88;;
26598;SDS011;14240;51.064;16.612;2023-05-03T07:00:18;12.88;;;3.53;;
26598;SDS011;14240;51.064;16.612;2023-05-03T07:02:45;9.57;;;4.95;;
26598;SDS011;14240;51.064;16.612;2023-05-03T07:05:11;20.77;;;11.15;;
26598;SDS011;14240;51.064;16.612;2023-05-03T07:07:37;12.48;;;4.55;;
26598;SDS011;14240;51.064;16.612;2023-05-03T07:10:03;14.88;;;5.25;;
26598;SDS011;14240;51.064;16.612;2023-05-03T07:12:32;7.32;;;2.97;;
26598;SDS011;14240;51.064;16.612;2023-05-03T07:14:57;8.23;;;3.25;;
26598;SDS011;14240;51.064;16.612;2023-05-03T07:17:23;6.65;;;3.05;;
26598;SDS011;14240;51.064;16.612;2023-05-03T07:19:49;7.00;;;3.60;;
26598;SDS011;14240;51.064;16.612;2023-05-03T07:22:16;8.55;;;3.05;;
26598;SDS011;14240;51.064;16.612;2023-05-03T07:24:44;6.38;;;3.00;;
26598;SDS011;14240;51.064;16.612;2023-05-03T07:27:10;7.05;;;3.00;;
26598;SDS011;14240;51.064;16.612;2023-05-03T07:29:42;5.97;;;2.67;;
26598;SDS011;14240;51.064;16.612;2023-05-03T07:32:08;5.57;;;2.65;;
26598;SDS011;14240;51.064;16.612;2023-05-03T07:34:34;6.63;;;2.70;;
26598;SDS011;14240;51.064;16.612;2023-05-03T07:37:00;7.63;;;2.70;;
26598;SDS011;14240;51.064;16.612;2023-05-03T07:39:25;7.35;;;2.95;;
26598;SDS011;14240;51.064;16.612;2023-05-03T07:41:51;9.40;;;3.28;;
26598;SDS011;14240;51.064;16.612;2023-05-03T07:44:17;5.70;;;3.03;;
26598;SDS011;14240;51.064;16.612;2023-05-03T07:46:43;6.25;;;3.22;;
26598;SDS011;14240;51.064;16.612;2023-05-03T07:49:08;9.52;;;3.25;;
26598;SDS011;14240;51.064;16.612;2023-05-03T07:51:34;4.78;;;2.63;;
26598;SDS011;14240;51.064;16.612;2023-05-03T07:54:00;10.10;;;3.05;;
26598;SDS011;14240;51.064;16.612;2023-05-03T07:56:27;4.22;;;2.22;;
26598;SDS011;14240;51.064;16.612;2023-05-03T07:58:52;8.98;;;2.60;;
26598;SDS011;14240;51.064;16.612;2023-05-03T08:01:18;5.50;;;2.80;;
26598;SDS011;14240;51.064;16.612;2023-05-03T08:03:45;5.53;;;2.15;;
26598;SDS011;14240;51.064;16.612;2023-05-03T08:06:14;8.00;;;3.65;;
26598;SDS011;14240;51.064;16.612;2023-05-03T08:08:40;8.40;;;3.28;;
26598;SDS011;14240;51.064;16.612;2023-05-03T08:11:06;5.85;;;2.33;;
26598;SDS011;14240;51.064;16.612;2023-05-03T08:13:33;5.47;;;2.58;;
26598;SDS011;14240;51.064;16.612;2023-05-03T08:15:59;4.43;;;2.35;;
26598;SDS011;14240;51.064;16.612;2023-05-03T08:18:25;4.32;;;2.33;;
26598;SDS011;14240;51.064;16.612;2023-05-03T08:20:51;5.93;;;2.95;;
26598;SDS011;14240;51.064;16.612;2023-05-03T08:23:17;6.60;;;2.80;;
26598;SDS011;14240;51.064;16.612;2023-05-03T08:25:43;8.60;;;2.70;;
26598;SDS011;14240;51.064;16.612;2023-05-03T08:28:09;6.25;;;2.97;;
26598;SDS011;14240;51.064;16.612;2023-05-03T08:30:38;6.65;;;2.80;;
26598;SDS011;14240;51.064;16.612;2023-05-03T08:33:04;9.27;;;3.42;;
26598;SDS011;14240;51.064;16.612;2023-05-03T08:35:30;5.32;;;2.63;;
26598;SDS011;14240;51.064;16.612;2023-05-03T08:37:56;20.63;;;12.60;;
26598;SDS011;14240;51.064;16.612;2023-05-03T08:40:22;12.35;;;3.58;;
26598;SDS011;14240;51.064;16.612;2023-05-03T08:42:48;6.35;;;3.20;;
26598;SDS011;14240;51.064;16.612;2023-05-03T08:45:15;7.07;;;3.03;;
26598;SDS011;14240;51.064;16.612;2023-05-03T08:47:41;7.85;;;2.40;;
26598;SDS011;14240;51.064;16.612;2023-05-03T08:50:12;8.65;;;3.35;;
26598;SDS011;14240;51.064;16.612;2023-05-03T08:52:40;4.43;;;2.42;;
26598;SDS011;14240;51.064;16.612;2023-05-03T08:55:07;6.93;;;2.55;;
26598;SDS011;14240;51.064;16.612;2023-05-03T08:57:34;6.20;;;2.70;;
26598;SDS011;14240;51.064;16.612;2023-05-03T09:00:00;4.47;;;2.38;;
26598;SDS011;14240;51.064;16.612;2023-05-03T09:02:29;7.22;;;3.05;;
26598;SDS011;14240;51.064;16.612;2023-05-03T09:04:58;8.88;;;3.85;;
26598;SDS011;14240;51.064;16.612;2023-05-03T09:07:25;5.47;;;2.63;;
26598;SDS011;14240;51.064;16.612;2023-05-03T09:09:50;6.30;;;2.85;;
26598;SDS011;14240;51.064;16.612;2023-05-03T09:12:34;6.82;;;2.30;;
26598;SDS011;14240;51.064;16.612;2023-05-03T09:15:05;4.53;;;2.65;;
26598;SDS011;14240;51.064;16.612;2023-05-03T09:17:31;3.97;;;2.00;;
26598;SDS011;14240;51.064;16.612;2023-05-03T09:19:57;5.18;;;2.33;;
26598;SDS011;14240;51.064;16.612;2023-05-03T09:22:29;10.00;;;2.87;;
26598;SDS011;14240;51.064;16.612;2023-05-03T09:24:59;6.55;;;2.63;;
26598;SDS011;14240;51.064;16.612;2023-05-03T09:27:25;7.07;;;2.83;;
26598;SDS011;14240;51.064;16.612;2023-05-03T09:29:52;6.43;;;2.60;;
26598;SDS011;14240;51.064;16.612;2023-05-03T09:32:19;3.87;;;2.53;;
26598;SDS011;14240;51.064;16.612;2023-05-03T09:34:49;7.63;;;2.78;;
26598;SDS011;14240;51.064;16.612;2023-05-03T09:37:14;4.93;;;3.13;;
26598;SDS011;14240;51.064;16.612;2023-05-03T09:39:41;11.60;;;3.10;;
26598;SDS011;14240;51.064;16.612;2023-05-03T09:42:11;7.32;;;3.05;;
26598;SDS011;14240;51.064;16.612;2023-05-03T09:44:48;7.82;;;2.47;;
26598;SDS011;14240;51.064;16.612;2023-05-03T09:47:17;7.88;;;2.17;;
26598;SDS011;14240;51.064;16.612;2023-05-03T09:49:44;6.60;;;3.08;;
26598;SDS011;14240;51.064;16.612;2023-05-03T09:52:10;19.67;;;9.93;;
26598;SDS011;14240;51.064;16.612;2023-05-03T09:54:37;11.30;;;6.05;;
26598;SDS011;14240;51.064;16.612;2023-05-03T09:57:03;22.58;;;12.35;;
26598;SDS011;14240;51.064;16.612;2023-05-03T09:59:31;9.15;;;3.67;;
26598;SDS011;14240;51.064;16.612;2023-05-03T10:01:58;10.00;;;3.80;;
26598;SDS011;14240;51.064;16.612;2023-05-03T10:04:27;6.55;;;3.10;;
26598;SDS011;14240;51.064;16.612;2023-05-03T10:09:25;7.22;;;2.42;;
26598;SDS011;14240;51.064;16.612;2023-05-03T10:12:05;5.80;;;2.83;;
26598;SDS011;14240;51.064;16.612;2023-05-03T10:14:32;4.55;;;2.17;;
26598;SDS011;14240;51.064;16.612;2023-05-03T10:17:00;6.82;;;2.55;;
26598;SDS011;14240;51.064;16.612;2023-05-03T10:24:36;9.05;;;2.97;;
26598;SDS011;14240;51.064;16.612;2023-05-03T10:27:24;8.95;;;2.55;;
26598;SDS011;14240;51.064;16.612;2023-05-03T10:30:01;4.65;;;2.47;;
26598;SDS011;14240;51.064;16.612;2023-05-03T10:32:27;9.98;;;3.03;;
26598;SDS011;14240;51.064;16.612;2023-05-03T10:34:58;4.97;;;2.33;;
26598;SDS011;14240;51.064;16.612;2023-05-03T10:37:43;7.65;;;2.67;;
26598;SDS011;14240;51.064;16.612;2023-05-03T10:40:13;6.68;;;3.05;;
26598;SDS011;14240;51.064;16.612;2023-05-03T10:42:45;12.02;;;6.22;;
26598;SDS011;14240;51.064;16.612;2023-05-03T10:45:25;4.75;;;2.95;;
26598;SDS011;14240;51.064;16.612;2023-05-03T10:50:40;5.63;;;2.50;;
26598;SDS011;14240;51.064;16.612;2023-05-03T10:53:06;6.45;;;2.35;;
26598;SDS011;14240;51.064;16.612;2023-05-03T10:55:34;7.40;;;2.60;;
26598;SDS011;14240;51.064;16.612;2023-05-03T10:58:00;5.97;;;2.65;;
26598;SDS011;14240;51.064;16.612;2023-05-03T11:00:37;6.25;;;1.95;;
26598;SDS011;14240;51.064;16.612;2023-05-03T11:05:35;6.35;;;2.63;;
26598;SDS011;14240;51.064;16.612;2023-05-03T11:08:11;5.10;;;2.60;;
26598;SDS011;14240;51.064;16.612;2023-05-03T11:10:38;5.45;;;2.85;;
26598;SDS011;14240;51.064;16.612;2023-05-03T11:13:04;5.15;;;2.05;;
26598;SDS011;14240;51.064;16.612;2023-05-03T11:15:30;3.13;;;2.10;;
26598;SDS011;14240;51.064;16.612;2023-05-03T11:17:56;6.88;;;2.38;;
26598;SDS011;14240;51.064;16.612;2023-05-03T11:20:22;3.65;;;2.22;;
26598;SDS011;14240;51.064;16.612;2023-05-03T11:22:48;6.32;;;2.45;;
26598;SDS011;14240;51.064;16.612;2023-05-03T11:25:14;5.35;;;2.33;;
26598;SDS011;14240;51.064;16.612;2023-05-03T11:27:40;5.75;;;2.10;;
26598;SDS011;14240;51.064;16.612;2023-05-03T11:30:07;4.15;;;2.58;;
26598;SDS011;14240;51.064;16.612;2023-05-03T11:35:04;6.45;;;2.20;;
26598;SDS011;14240;51.064;16.612;2023-05-03T11:37:31;6.88;;;2.65;;
26598;SDS011;14240;51.064;16.612;2023-05-03T11:39:58;6.85;;;2.42;;
26598;SDS011;14240;51.064;16.612;2023-05-03T11:42:24;7.40;;;3.15;;
26598;SDS011;14240;51.064;16.612;2023-05-03T11:44:53;5.10;;;2.90;;
26598;SDS011;14240;51.064;16.612;2023-05-03T11:47:20;9.88;;;2.90;;
26598;SDS011;14240;51.064;16.612;2023-05-03T11:49:56;5.63;;;2.45;;
26598;SDS011;14240;51.064;16.612;2023-05-03T11:52:25;5.00;;;2.42;;
26598;SDS011;14240;51.064;16.612;2023-05-03T11:54:54;6.47;;;2.85;;
26598;SDS011;14240;51.064;16.612;2023-05-03T11:57:21;4.90;;;2.28;;
26598;SDS011;14240;51.064;16.612;2023-05-03T12:02:15;6.13;;;2.40;;
26598;SDS011;14240;51.064;16.612;2023-05-03T12:04:41;10.13;;;2.65;;
26598;SDS011;14240;51.064;16.612;2023-05-03T12:07:11;8.25;;;2.80;;
26598;SDS011;14240;51.064;16.612;2023-05-03T12:09:38;6.93;;;2.40;;
26598;SDS011;14240;51.064;16.612;2023-05-03T12:12:04;6.10;;;2.30;;
26598;SDS011;14240;51.064;16.612;2023-05-03T12:18:24;8.65;;;2.58;;
26598;SDS011;14240;51.064;16.612;2023-05-03T12:20:22;4.60;;;2.53;;
26598;SDS011;14240;51.064;16.612;2023-05-03T12:22:50;5.82;;;2.28;;
26598;SDS011;14240;51.064;16.612;2023-05-03T12:25:20;5.90;;;2.78;;
26598;SDS011;14240;51.064;16.612;2023-05-03T12:27:46;6.05;;;2.53;;
26598;SDS011;14240;51.064;16.612;2023-05-03T12:30:12;7.03;;;2.60;;
26598;SDS011;14240;51.064;16.612;2023-05-03T12:32:39;5.10;;;2.65;;
26598;SDS011;14240;51.064;16.612;2023-05-03T12:35:05;5.13;;;2.55;;
26598;SDS011;14240;51.064;16.612;2023-05-03T12:37:33;3.60;;;2.30;;
26598;SDS011;14240;51.064;16.612;2023-05-03T12:39:59;3.97;;;2.13;;
26598;SDS011;14240;51.064;16.612;2023-05-03T12:42:25;6.88;;;2.60;;
26598;SDS011;14240;51.064;16.612;2023-05-03T12:44:55;5.87;;;2.87;;
26598;SDS011;14240;51.064;16.612;2023-05-03T12:47:22;4.80;;;2.22;;
26598;SDS011;14240;51.064;16.612;2023-05-03T12:49:47;6.80;;;2.40;;
26598;SDS011;14240;51.064;16.612;2023-05-03T12:52:13;5.40;;;2.88;;
26598;SDS011;14240;51.064;16.612;2023-05-03T12:54:39;3.97;;;2.35;;
26598;SDS011;14240;51.064;16.612;2023-05-03T12:57:06;4.38;;;2.08;;
26598;SDS011;14240;51.064;16.612;2023-05-03T12:59:33;4.35;;;2.22;;
26598;SDS011;14240;51.064;16.612;2023-05-03T13:02:00;8.30;;;3.33;;
26598;SDS011;14240;51.064;16.612;2023-05-03T13:04:26;5.88;;;2.30;;
26598;SDS011;14240;51.064;16.612;2023-05-03T13:06:52;7.00;;;2.70;;
26598;SDS011;14240;51.064;16.612;2023-05-03T13:09:18;11.18;;;4.30;;
26598;SDS011;14240;51.064;16.612;2023-05-03T13:11:44;4.32;;;1.95;;
26598;SDS011;14240;51.064;16.612;2023-05-03T13:14:13;4.60;;;2.35;;
26598;SDS011;14240;51.064;16.612;2023-05-03T13:16:43;8.45;;;3.03;;
26598;SDS011;14240;51.064;16.612;2023-05-03T13:19:12;8.48;;;2.40;;
26598;SDS011;14240;51.064;16.612;2023-05-03T13:21:38;8.23;;;2.45;;
26598;SDS011;14240;51.064;16.612;2023-05-03T13:24:04;6.25;;;3.10;;
26598;SDS011;14240;51.064;16.612;2023-05-03T13:26:30;9.43;;;2.90;;
26598;SDS011;14240;51.064;16.612;2023-05-03T13:28:57;4.57;;;2.20;;
26598;SDS011;14240;51.064;16.612;2023-05-03T13:31:23;10.25;;;2.58;;
26598;SDS011;14240;51.064;16.612;2023-05-03T13:36:24;4.93;;;2.42;;
26598;SDS011;14240;51.064;16.612;2023-05-03T13:38:51;5.30;;;2.08;;
26598;SDS011;14240;51.064;16.612;2023-05-03T13:41:17;6.88;;;2.85;;
26598;SDS011;14240;51.064;16.612;2023-05-03T13:43:43;4.30;;;2.40;;
26598;SDS011;14240;51.064;16.612;2023-05-03T13:46:09;6.53;;;2.40;;
26598;SDS011;14240;51.064;16.612;2023-05-03T13:48:36;6.43;;;2.47;;
26598;SDS011;14240;51.064;16.612;2023-05-03T13:51:09;6.00;;;2.22;;
26598;SDS011;14240;51.064;16.612;2023-05-03T13:53:36;4.03;;;2.05;;
26598;SDS011;14240;51.064;16.612;2023-05-03T13:56:04;7.43;;;2.33;;
26598;SDS011;14240;51.064;16.612;2023-05-03T13:58:30;6.80;;;2.65;;
26598;SDS011;14240;51.064;16.612;2023-05-03T14:00:56;5.22;;;2.50;;
26598;SDS011;14240;51.064;16.612;2023-05-03T14:03:22;5.97;;;2.30;;
26598;SDS011;14240;51.064;16.612;2023-05-03T14:05:48;4.75;;;2.30;;
26598;SDS011;14240;51.064;16.612;2023-05-03T14:08:14;9.35;;;2.40;;
26598;SDS011;14240;51.064;16.612;2023-05-03T14:10:42;6.23;;;2.53;;
26598;SDS011;14240;51.064;16.612;2023-05-03T14:13:08;6.10;;;2.42;;
26598;SDS011;14240;51.064;16.612;2023-05-03T14:15:40;5.13;;;2.22;;
26598;SDS011;14240;51.064;16.612;2023-05-03T14:18:07;4.32;;;2.30;;
26598;SDS011;14240;51.064;16.612;2023-05-03T14:20:33;5.10;;;2.22;;
26598;SDS011;14240;51.064;16.612;2023-05-03T14:23:00;7.55;;;2.35;;
26598;SDS011;14240;51.064;16.612;2023-05-03T14:25:27;7.63;;;2.50;;
26598;SDS011;14240;51.064;16.612;2023-05-03T14:27:53;4.28;;;2.47;;
26598;SDS011;14240;51.064;16.612;2023-05-03T14:30:19;5.75;;;2.50;;
26598;SDS011;14240;51.064;16.612;2023-05-03T14:32:45;5.45;;;2.33;;
26598;SDS011;14240;51.064;16.612;2023-05-03T14:35:12;5.43;;;2.45;;
26598;SDS011;14240;51.064;16.612;2023-05-03T14:37:38;4.68;;;2.05;;
26598;SDS011;14240;51.064;16.612;2023-05-03T14:40:04;6.35;;;2.00;;
26598;SDS011;14240;51.064;16.612;2023-05-03T14:42:31;4.85;;;2.28;;
26598;SDS011;14240;51.064;16.612;2023-05-03T14:44:57;7.45;;;2.22;;
26598;SDS011;14240;51.064;16.612;2023-05-03T14:47:23;7.68;;;2.40;;
26598;SDS011;14240;51.064;16.612;2023-05-03T14:49:50;5.75;;;2.20;;
26598;SDS011;14240;51.064;16.612;2023-05-03T14:52:16;6.47;;;2.28;;
26598;SDS011;14240;51.064;16.612;2023-05-03T14:54:41;4.63;;;2.33;;
26598;SDS011;14240;51.064;16.612;2023-05-03T14:57:08;7.57;;;2.38;;
26598;SDS011;14240;51.064;16.612;2023-05-03T14:59:33;7.55;;;2.25;;